Time;durP1;ratioP1;P1;durP2;ratioP2;P2;SDS_P1;SDS_P2;PMS_P1;PMS_P2;Temp;Humidity;BMP_temperature;BMP_pressure;BME280_temperature;BME280_humidity;BME280_pressure;Samples;Min_cycle;Max_cycle;Signal;HPM_P1;HPM_P2
2022/07/17 00:01:55;;;;;;;4.32;3.88;;;;;;;;;;5052873;28;20634;-70
2022/07/17 00:04:21;;;;;;;4.07;3.60;;;;;;;;;;5054925;28;20064;-70
2022/07/17 00:06:48;;;;;;;3.93;3.57;;;;;;;;;;5055107;28;20091;-70
2022/07/17 00:09:14;;;;;;;3.50;3.20;;;;;;;;;;5055147;28;20052;-70
2022/07/17 00:11:41;;;;;;;4.03;3.73;;;;;;;;;;5055203;28;20045;-70
2022/07/17 00:14:07;;;;;;;4.33;3.93;;;;;;;;;;5054791;28;20075;-70
2022/07/17 00:16:34;;;;;;;4.50;4.10;;;;;;;;;;5054705;28;20080;-70
2022/07/17 00:19:00;;;;;;;4.20;3.70;;;;;;;;;;5055019;28;20048;-70
2022/07/17 00:21:27;;;;;;;4.05;3.70;;;;;;;;;;5054603;28;20056;-70
2022/07/17 00:23:54;;;;;;;5.00;3.88;;;;;;;;;;5054756;28;20074;-70
2022/07/17 00:26:20;;;;;;;4.72;3.80;;;;;;;;;;5054992;28;20377;-70
2022/07/17 00:28:47;;;;;;;4.43;3.60;;;;;;;;;;5054472;28;20053;-69
2022/07/17 00:31:13;;;;;;;4.00;3.60;;;;;;;;;;5054727;28;20095;-70
2022/07/17 00:33:40;;;;;;;3.87;3.50;;;;;;;;;;5054683;28;20106;-69
2022/07/17 00:36:06;;;;;;;4.10;3.73;;;;;;;;;;5054604;28;20049;-68
2022/07/17 00:38:33;;;;;;;4.63;3.70;;;;;;;;;;5052760;28;20508;-68
2022/07/17 00:40:59;;;;;;;4.15;3.75;;;;;;;;;;5045424;28;20046;-69
2022/07/17 00:43:26;;;;;;;3.67;3.37;;;;;;;;;;5047096;28;20048;-69
2022/07/17 00:46:00;;;;;;;3.83;3.53;;;;;;;;;;5053911;28;20053;-68
2022/07/17 00:48:27;;;;;;;4.43;4.03;;;;;;;;;;5054375;28;20052;-69
2022/07/17 00:50:54;;;;;;;3.65;3.35;;;;;;;;;;5054131;28;20562;-69
2022/07/17 00:53:22;;;;;;;3.92;3.58;;;;;;;;;;5054340;28;20404;-69
2022/07/17 00:55:48;;;;;;;3.38;3.15;;;;;;;;;;5053888;28;20045;-68
2022/07/17 00:58:19;;;;;;;3.70;3.40;;;;;;;;;;5054093;28;20064;-69
2022/07/17 01:00:47;;;;;;;3.70;3.40;;;;;;;;;;5054216;28;20045;-69
2022/07/17 01:03:15;;;;;;;3.42;3.13;;;;;;;;;;5053900;28;20041;-69
2022/07/17 01:05:41;;;;;;;3.85;3.55;;;;;;;;;;5053820;28;20094;-69
2022/07/17 01:08:08;;;;;;;4.38;3.97;;;;;;;;;;5053959;28;20045;-69
2022/07/17 01:10:34;;;;;;;4.18;3.75;;;;;;;;;;5053839;28;20045;-69
2022/07/17 01:13:01;;;;;;;3.53;3.23;;;;;;;;;;5052463;28;20053;-69
2022/07/17 01:15:28;;;;;;;3.85;3.55;;;;;;;;;;5053672;28;20535;-69
2022/07/17 01:17:55;;;;;;;3.80;3.50;;;;;;;;;;5053891;28;20123;-69
2022/07/17 01:20:21;;;;;;;4.25;3.50;;;;;;;;;;5053840;28;20103;-69
2022/07/17 01:22:50;;;;;;;4.35;3.83;;;;;;;;;;5053957;28;20049;-70
2022/07/17 01:25:19;;;;;;;4.88;3.85;;;;;;;;;;5053606;28;20478;-69
2022/07/17 01:27:45;;;;;;;3.65;3.35;;;;;;;;;;5053300;28;20102;-69
2022/07/17 01:30:12;;;;;;;3.90;3.50;;;;;;;;;;5052245;28;20049;-69
2022/07/17 01:32:39;;;;;;;3.65;3.38;;;;;;;;;;5053533;28;20094;-70
2022/07/17 01:35:07;;;;;;;5.13;3.50;;;;;;;;;;5053228;28;20051;-70
2022/07/17 01:37:34;;;;;;;3.63;3.33;;;;;;;;;;5053221;28;20402;-69
2022/07/17 01:40:00;;;;;;;4.45;3.90;;;;;;;;;;5053173;28;20452;-69
2022/07/17 01:42:27;;;;;;;3.83;3.47;;;;;;;;;;5053390;28;20114;-70
2022/07/17 01:44:54;;;;;;;3.35;3.05;;;;;;;;;;5052914;28;20114;-69
2022/07/17 01:47:21;;;;;;;3.78;3.45;;;;;;;;;;5053049;28;20486;-70
2022/07/17 01:49:53;;;;;;;4.35;3.83;;;;;;;;;;5053245;28;20048;-70
2022/07/17 01:52:20;;;;;;;3.97;3.58;;;;;;;;;;5052960;28;20098;-70
2022/07/17 01:54:46;;;;;;;4.90;4.18;;;;;;;;;;5053074;28;20106;-70
2022/07/17 01:57:13;;;;;;;4.00;3.70;;;;;;;;;;5052706;28;20053;-69
2022/07/17 01:59:39;;;;;;;3.70;3.40;;;;;;;;;;5052761;28;20562;-69
2022/07/17 02:02:06;;;;;;;4.53;4.00;;;;;;;;;;5053052;28;20427;-69
2022/07/17 02:04:34;;;;;;;3.83;3.42;;;;;;;;;;5052877;28;20045;-69
2022/07/17 02:07:00;;;;;;;;;;;;;;;;;;5053375;28;20118;-70
2022/07/17 02:09:27;;;;;;;4.20;3.80;;;;;;;;;;5052633;28;19925;-70
2022/07/17 02:11:53;;;;;;;3.70;3.40;;;;;;;;;;5052695;28;20278;-69
2022/07/17 02:14:20;;;;;;;3.90;3.50;;;;;;;;;;5052510;28;20076;-69
2022/07/17 02:16:46;;;;;;;4.93;3.45;;;;;;;;;;5052556;28;20049;-69
2022/07/17 02:19:13;;;;;;;4.20;3.72;;;;;;;;;;5052410;28;20049;-70
2022/07/17 02:21:39;;;;;;;3.95;3.65;;;;;;;;;;5052270;28;20087;-69
2022/07/17 02:24:06;;;;;;;3.67;3.40;;;;;;;;;;5052030;28;20049;-69
2022/07/17 02:26:33;;;;;;;4.25;3.85;;;;;;;;;;5051179;28;20049;-69
2022/07/17 02:28:59;;;;;;;6.45;3.60;;;;;;;;;;5052374;28;20041;-69
2022/07/17 02:31:25;;;;;;;4.47;3.35;;;;;;;;;;5052490;28;20102;-69
2022/07/17 02:33:53;;;;;;;3.97;3.30;;;;;;;;;;5052523;28;20100;-69
2022/07/17 02:36:19;;;;;;;3.72;3.33;;;;;;;;;;5047994;28;20050;-69
2022/07/17 02:38:46;;;;;;;4.18;3.78;;;;;;;;;;5049675;28;20056;-70
2022/07/17 02:41:12;;;;;;;3.97;3.67;;;;;;;;;;5051969;28;20057;-70
2022/07/17 02:43:39;;;;;;;4.85;3.67;;;;;;;;;;5051947;28;20500;-70
2022/07/17 02:46:05;;;;;;;3.95;3.53;;;;;;;;;;5051776;28;20493;-70
2022/07/17 02:48:32;;;;;;;5.10;4.03;;;;;;;;;;5052173;28;20397;-69
2022/07/17 02:50:59;;;;;;;4.13;3.73;;;;;;;;;;5052201;28;20053;-70
2022/07/17 02:53:25;;;;;;;3.50;3.20;;;;;;;;;;5051815;28;20626;-70
2022/07/17 02:55:52;;;;;;;4.40;3.53;;;;;;;;;;5052041;28;20049;-70
2022/07/17 02:58:18;;;;;;;3.83;3.53;;;;;;;;;;5051686;28;20080;-70
2022/07/17 03:00:45;;;;;;;4.75;3.92;;;;;;;;;;5051675;28;20539;-69
2022/07/17 03:03:11;;;;;;;3.97;3.67;;;;;;;;;;5051827;28;20114;-69
2022/07/17 03:05:38;;;;;;;4.13;3.80;;;;;;;;;;5052289;28;20056;-69
2022/07/17 03:08:04;;;;;;;4.40;3.92;;;;;;;;;;5051585;28;20547;-70
2022/07/17 03:10:31;;;;;;;4.05;3.65;;;;;;;;;;5051765;28;20110;-69
2022/07/17 03:12:57;;;;;;;4.25;3.85;;;;;;;;;;5051589;28;20053;-69
2022/07/17 03:15:24;;;;;;;3.77;3.47;;;;;;;;;;5051565;28;20497;-69
2022/07/17 03:17:51;;;;;;;4.45;4.13;;;;;;;;;;5051438;28;20049;-69
2022/07/17 03:20:17;;;;;;;3.97;3.67;;;;;;;;;;5051884;28;20049;-70
2022/07/17 03:22:44;;;;;;;4.55;4.15;;;;;;;;;;5051583;28;20335;-69
2022/07/17 03:25:10;;;;;;;3.88;3.58;;;;;;;;;;5051684;28;20079;-69
2022/07/17 03:27:38;;;;;;;3.33;3.13;;;;;;;;;;5051677;28;20048;-69
2022/07/17 03:30:05;;;;;;;4.55;4.05;;;;;;;;;;5051393;28;20045;-70
2022/07/17 03:32:31;;;;;;;4.47;4.07;;;;;;;;;;5051410;28;20053;-68
2022/07/17 03:34:58;;;;;;;3.83;3.53;;;;;;;;;;5051320;28;20099;-69
2022/07/17 03:37:24;;;;;;;4.38;3.80;;;;;;;;;;5054015;28;20480;-69
2022/07/17 03:39:51;;;;;;;3.75;3.25;;;;;;;;;;5055267;28;20053;-69
2022/07/17 03:42:18;;;;;;;4.13;3.73;;;;;;;;;;5055402;28;20558;-69
2022/07/17 03:44:44;;;;;;;4.53;3.72;;;;;;;;;;5055564;28;20049;-69
2022/07/17 03:47:11;;;;;;;3.63;3.40;;;;;;;;;;5055544;28;20094;-69
2022/07/17 03:49:38;;;;;;;3.70;3.40;;;;;;;;;;5055526;28;20086;-69
2022/07/17 03:52:05;;;;;;;4.22;3.45;;;;;;;;;;5055126;28;20446;-69
2022/07/17 03:54:31;;;;;;;3.72;3.42;;;;;;;;;;5055514;28;20446;-69
2022/07/17 03:56:58;;;;;;;3.90;3.53;;;;;;;;;;5055507;28;20049;-69
2022/07/17 03:59:25;;;;;;;4.00;3.53;;;;;;;;;;5055183;28;20408;-69
2022/07/17 04:01:53;;;;;;;3.92;3.53;;;;;;;;;;5054954;28;20558;-68
2022/07/17 04:04:20;;;;;;;4.38;3.97;;;;;;;;;;5054870;28;20381;-68
2022/07/17 04:06:46;;;;;;;3.80;3.50;;;;;;;;;;5055192;28;20068;-68
2022/07/17 04:09:13;;;;;;;3.92;3.53;;;;;;;;;;5055419;28;20098;-68
2022/07/17 04:11:39;;;;;;;4.47;3.80;;;;;;;;;;5054851;28;20098;-69
2022/07/17 04:14:05;;;;;;;3.65;3.35;;;;;;;;;;5054838;28;20471;-69
2022/07/17 04:16:32;;;;;;;4.65;3.63;;;;;;;;;;5054756;28;20564;-69
2022/07/17 04:18:58;;;;;;;4.57;4.00;;;;;;;;;;5054638;28;20511;-69
2022/07/17 04:21:25;;;;;;;4.83;4.23;;;;;;;;;;5054605;28;20049;-69
2022/07/17 04:23:52;;;;;;;4.90;4.07;;;;;;;;;;5054801;28;20075;-68
2022/07/17 04:26:18;;;;;;;4.75;4.25;;;;;;;;;;5054844;28;20082;-69
2022/07/17 04:28:46;;;;;;;5.50;4.20;;;;;;;;;;5054943;28;20049;-70
2022/07/17 04:31:12;;;;;;;6.55;4.63;;;;;;;;;;5054720;28;20048;-70
2022/07/17 04:33:39;;;;;;;5.07;4.57;;;;;;;;;;5054351;28;20045;-69
2022/07/17 04:36:05;;;;;;;5.63;4.65;;;;;;;;;;5054560;28;20119;-70
2022/07/17 04:38:32;;;;;;;4.60;4.15;;;;;;;;;;5054275;28;20924;-70
2022/07/17 04:40:58;;;;;;;5.22;4.10;;;;;;;;;;5054492;28;20102;-70
2022/07/17 04:43:25;;;;;;;4.68;4.18;;;;;;;;;;5054191;28;20102;-70
2022/07/17 04:45:52;;;;;;;6.10;4.40;;;;;;;;;;5054142;28;20483;-70
2022/07/17 04:48:18;;;;;;;6.95;4.00;;;;;;;;;;5054228;28;20041;-70
2022/07/17 04:50:44;;;;;;;4.63;4.18;;;;;;;;;;5054412;28;20049;-70
2022/07/17 04:53:11;;;;;;;4.10;3.80;;;;;;;;;;5054261;28;20053;-69
2022/07/17 04:55:38;;;;;;;4.53;4.10;;;;;;;;;;5054105;28;20102;-69
2022/07/17 04:58:04;;;;;;;5.55;3.58;;;;;;;;;;5053936;28;20548;-69
2022/07/17 05:00:31;;;;;;;8.07;4.25;;;;;;;;;;5054078;28;20053;-71
2022/07/17 05:02:58;;;;;;;4.70;3.20;;;;;;;;;;5054058;28;20099;-70
2022/07/17 05:05:24;;;;;;;3.95;3.58;;;;;;;;;;5054029;28;20049;-70
2022/07/17 05:07:51;;;;;;;5.10;3.70;;;;;;;;;;5054024;28;20053;-70
2022/07/17 05:10:17;;;;;;;4.60;3.60;;;;;;;;;;5054055;28;20087;-70
2022/07/17 05:12:51;;;;;;;4.43;3.67;;;;;;;;;;5053832;28;20044;-70
2022/07/17 05:15:17;;;;;;;5.38;4.28;;;;;;;;;;5053527;28;20057;-70
2022/07/17 05:17:44;;;;;;;8.00;4.80;;;;;;;;;;5053610;28;20045;-70
2022/07/17 05:20:10;;;;;;;5.13;4.07;;;;;;;;;;5053732;28;20106;-70
2022/07/17 05:22:37;;;;;;;4.47;4.07;;;;;;;;;;5052244;28;20083;-70
2022/07/17 05:25:04;;;;;;;6.18;4.20;;;;;;;;;;5053772;28;20048;-70
2022/07/17 05:27:30;;;;;;;5.03;3.97;;;;;;;;;;5053317;28;20094;-69
2022/07/17 05:29:56;;;;;;;4.35;3.67;;;;;;;;;;5053347;28;20443;-69
2022/07/17 05:32:23;;;;;;;4.00;3.55;;;;;;;;;;5053224;28;20045;-70
2022/07/17 05:34:49;;;;;;;6.28;4.15;;;;;;;;;;5053457;28;20492;-70
2022/07/17 05:37:16;;;;;;;7.53;4.15;;;;;;;;;;5053245;28;20570;-70
2022/07/17 05:39:42;;;;;;;5.03;4.53;;;;;;;;;;5053079;28;20174;-70
2022/07/17 05:42:09;;;;;;;5.13;3.95;;;;;;;;;;5053510;28;20102;-70
2022/07/17 05:44:35;;;;;;;5.55;4.70;;;;;;;;;;5053243;28;20049;-71
2022/07/17 05:47:02;;;;;;;6.07;5.00;;;;;;;;;;5053334;28;20049;-71
2022/07/17 05:49:28;;;;;;;5.90;4.82;;;;;;;;;;5053336;28;20114;-71
2022/07/17 05:51:55;;;;;;;5.78;4.32;;;;;;;;;;5053234;28;20455;-71
2022/07/17 05:54:21;;;;;;;4.82;4.38;;;;;;;;;;5053251;28;20045;-71
2022/07/17 05:56:48;;;;;;;4.88;4.47;;;;;;;;;;5051501;28;20060;-71
2022/07/17 05:59:14;;;;;;;9.93;5.18;;;;;;;;;;5052118;28;20053;-71
2022/07/17 06:01:41;;;;;;;5.60;5.03;;;;;;;;;;5051759;28;20053;-71
2022/07/17 06:04:08;;;;;;;7.35;4.82;;;;;;;;;;5053003;28;20053;-71
2022/07/17 06:06:34;;;;;;;5.60;4.07;;;;;;;;;;5051477;28;20044;-71
2022/07/17 06:09:01;;;;;;;4.47;3.72;;;;;;;;;;5052595;28;20041;-71
2022/07/17 06:11:27;;;;;;;4.60;3.77;;;;;;;;;;5052832;28;20057;-70
2022/07/17 06:14:02;;;;;;;5.80;3.40;;;;;;;;;;5052800;28;20044;-71
2022/07/17 06:16:28;;;;;;;4.90;3.53;;;;;;;;;;5052679;28;20056;-71
2022/07/17 06:18:55;;;;;;;3.50;3.20;;;;;;;;;;5052431;28;20097;-71
2022/07/17 06:21:21;;;;;;;4.95;3.10;;;;;;;;;;5052439;28;20094;-71
2022/07/17 06:23:49;;;;;;;5.10;3.28;;;;;;;;;;5052288;28;20064;-71
2022/07/17 06:26:16;;;;;;;4.87;4.17;;;;;;;;;;5052560;28;20094;-71
2022/07/17 06:28:42;;;;;;;5.35;3.65;;;;;;;;;;5052526;28;20103;-72
2022/07/17 06:31:09;;;;;;;4.28;3.55;;;;;;;;;;5051156;28;20040;-71
2022/07/17 06:33:36;;;;;;;3.77;3.47;;;;;;;;;;5052632;28;20041;-71
2022/07/17 06:36:03;;;;;;;3.65;3.35;;;;;;;;;;5052760;28;20076;-71
2022/07/17 06:38:29;;;;;;;3.95;3.20;;;;;;;;;;5051949;28;20060;-71
2022/07/17 06:40:56;;;;;;;3.30;2.83;;;;;;;;;;5050660;28;20053;-70
2022/07/17 06:43:22;;;;;;;3.15;2.75;;;;;;;;;;5052048;28;20083;-70
2022/07/17 06:45:51;;;;;;;2.00;1.88;;;;;;;;;;5052161;28;20550;-70
2022/07/17 06:48:18;;;;;;;3.38;2.42;;;;;;;;;;5050865;28;20118;-70
2022/07/17 06:50:44;;;;;;;3.03;2.30;;;;;;;;;;5049413;28;20579;-69
2022/07/17 06:53:11;;;;;;;2.30;1.88;;;;;;;;;;5051759;28;20324;-69
2022/07/17 06:55:38;;;;;;;5.47;2.30;;;;;;;;;;5051822;28;20539;-69
2022/07/17 06:58:04;;;;;;;4.28;2.05;;;;;;;;;;5051892;28;20095;-69
2022/07/17 07:00:31;;;;;;;4.85;2.40;;;;;;;;;;5051818;28;20048;-69
2022/07/17 07:02:57;;;;;;;3.53;1.98;;;;;;;;;;5051780;28;20122;-69
2022/07/17 07:05:24;;;;;;;3.20;2.00;;;;;;;;;;5051976;28;20049;-69
2022/07/17 07:07:50;;;;;;;2.28;1.75;;;;;;;;;;5050792;28;20045;-70
2022/07/17 07:10:17;;;;;;;2.83;1.80;;;;;;;;;;5050990;28;20566;-69
2022/07/17 07:12:43;;;;;;;1.80;1.70;;;;;;;;;;5050609;28;20068;-69
2022/07/17 07:15:10;;;;;;;1.70;1.27;;;;;;;;;;5051194;28;20087;-69
2022/07/17 07:17:39;;;;;;;2.47;1.70;;;;;;;;;;5051179;28;20060;-69
2022/07/17 07:20:06;;;;;;;3.47;1.70;;;;;;;;;;5050856;28;20106;-70
2022/07/17 07:22:33;;;;;;;2.00;1.80;;;;;;;;;;5051191;28;20045;-70
2022/07/17 07:25:01;;;;;;;2.17;1.52;;;;;;;;;;5050705;28;20083;-71
2022/07/17 07:27:28;;;;;;;2.05;1.50;;;;;;;;;;5051060;28;20049;-70
2022/07/17 07:29:54;;;;;;;2.47;1.60;;;;;;;;;;5049709;28;20451;-70
2022/07/17 07:32:21;;;;;;;1.77;1.48;;;;;;;;;;5031502;28;20053;-70
2022/07/17 07:34:47;;;;;;;1.88;1.40;;;;;;;;;;5031110;28;20135;-71
2022/07/17 07:37:14;;;;;;;3.63;1.67;;;;;;;;;;5029361;28;20088;-71
2022/07/17 07:39:40;;;;;;;2.97;1.60;;;;;;;;;;5030884;28;20050;-71
2022/07/17 07:42:07;;;;;;;2.88;1.70;;;;;;;;;;5042456;28;20053;-70
2022/07/17 07:44:35;;;;;;;5.13;1.65;;;;;;;;;;5051232;28;20496;-70
2022/07/17 07:47:02;;;;;;;2.90;1.70;;;;;;;;;;5043162;28;20045;-70
2022/07/17 07:49:29;;;;;;;3.38;1.67;;;;;;;;;;5045336;28;20053;-70
2022/07/17 07:52:04;;;;;;;2.55;1.20;;;;;;;;;;5049937;28;20493;-69
2022/07/17 07:54:32;;;;;;;2.58;1.63;;;;;;;;;;5051692;28;20056;-71
2022/07/17 07:56:58;;;;;;;;;;;;;;;;;;5051317;28;20053;-70
2022/07/17 07:59:24;;;;;;;2.13;1.63;;;;;;;;;;5050982;28;19975;-69
2022/07/17 08:01:51;;;;;;;3.33;1.30;;;;;;;;;;5051052;28;20095;-70
2022/07/17 08:04:18;;;;;;;3.35;1.40;;;;;;;;;;5051379;28;20057;-76
2022/07/17 08:06:45;;;;;;;2.78;1.40;;;;;;;;;;5050997;28;20049;-70
2022/07/17 08:09:12;;;;;;;1.65;1.20;;;;;;;;;;5050872;28;20053;-70
2022/07/17 08:11:38;;;;;;;;;;;;;;;;;;5051503;28;20119;-69
2022/07/17 08:14:05;;;;;;;;;;;;;;;;;;5051292;28;20440;-67
2022/07/17 08:16:38;;;;;;;1.60;0.98;;;;;;;;;;5023744;28;19929;-70
2022/07/17 08:19:04;;;;;;;;;;;;;;;;;;5051570;28;20053;-67
2022/07/17 08:21:31;;;;;;;;;;;;;;;;;;5051446;28;19978;-69
2022/07/17 08:23:57;;;;;;;1.67;1.17;;;;;;;;;;5054448;28;19925;-66
2022/07/17 08:26:24;;;;;;;1.13;1.02;;;;;;;;;;5055033;28;20048;-67
2022/07/17 08:28:50;;;;;;;;;;;;;;;;;;5055079;28;20556;-66
2022/07/17 08:31:17;;;;;;;1.58;1.08;;;;;;;;;;5040356;28;19924;-69
2022/07/17 08:33:43;;;;;;;1.27;1.17;;;;;;;;;;5054347;28;20049;-71
2022/07/17 08:36:10;;;;;;;3.40;0.95;;;;;;;;;;5054408;28;20049;-68
2022/07/17 08:38:36;;;;;;;2.60;1.15;;;;;;;;;;5054471;28;20049;-69
2022/07/17 08:41:04;;;;;;;2.47;1.05;;;;;;;;;;5054041;28;20103;-68
2022/07/17 08:43:30;;;;;;;1.20;1.10;;;;;;;;;;5054214;28;20056;-67
2022/07/17 08:45:58;;;;;;;1.55;1.25;;;;;;;;;;5053823;28;20503;-69
2022/07/17 08:48:25;;;;;;;1.83;1.02;;;;;;;;;;5054163;28;20099;-70
2022/07/17 08:50:55;;;;;;;2.90;1.20;;;;;;;;;;5054188;28;20049;-69
2022/07/17 08:53:21;;;;;;;1.90;1.13;;;;;;;;;;5054366;28;20052;-68
2022/07/17 08:55:49;;;;;;;2.22;1.20;;;;;;;;;;5054210;28;20075;-69
2022/07/17 08:58:16;;;;;;;;;;;;;;;;;;5049474;28;20091;-68
2022/07/17 09:00:42;;;;;;;3.92;1.20;;;;;;;;;;5044596;28;19921;-66
2022/07/17 09:03:09;;;;;;;1.80;1.02;;;;;;;;;;5054029;28;20124;-67
2022/07/17 09:05:39;;;;;;;2.40;0.93;;;;;;;;;;5054116;28;20057;-69
2022/07/17 09:08:07;;;;;;;1.52;1.13;;;;;;;;;;5053790;28;20049;-69
2022/07/17 09:10:38;;;;;;;2.85;1.20;;;;;;;;;;5042143;28;20052;-69
2022/07/17 09:13:14;;;;;;;5.75;1.42;;;;;;;;;;5053245;28;20115;-68
2022/07/17 09:15:40;;;;;;;1.98;1.00;;;;;;;;;;5053240;28;20061;-67
2022/07/17 09:18:11;;;;;;;1.70;0.95;;;;;;;;;;5053146;28;20115;-68
2022/07/17 09:20:38;;;;;;;1.65;0.90;;;;;;;;;;5053046;28;20057;-67
2022/07/17 09:23:05;;;;;;;3.78;1.00;;;;;;;;;;5052961;28;20493;-68
2022/07/17 09:25:40;;;;;;;2.28;0.90;;;;;;;;;;5052988;28;20044;-68
2022/07/17 09:28:07;;;;;;;1.95;0.95;;;;;;;;;;5033458;28;20379;-68
2022/07/17 09:30:35;;;;;;;1.48;1.33;;;;;;;;;;5049959;28;20049;-67
2022/07/17 09:33:01;;;;;;;2.30;1.13;;;;;;;;;;5040588;28;20052;-67
2022/07/17 09:35:28;;;;;;;;;;;;;;;;;;5046646;28;20474;-67
2022/07/17 09:37:55;;;;;;;1.48;0.90;;;;;;;;;;5050754;28;19920;-68
2022/07/17 09:43:12;;;;;;;3.35;1.30;;;;;;;;;;5052593;28;20049;-67
2022/07/17 09:45:39;;;;;;;1.33;1.05;;;;;;;;;;5042137;28;20049;-68
2022/07/17 09:48:08;;;;;;;0.98;0.98;;;;;;;;;;5031657;28;20056;-66
2022/07/17 09:50:34;;;;;;;1.80;1.20;;;;;;;;;;5031805;28;20112;-66
2022/07/17 09:53:02;;;;;;;1.70;1.00;;;;;;;;;;5032293;28;20087;-65
2022/07/17 09:55:30;;;;;;;2.58;1.23;;;;;;;;;;5046512;28;20481;-67
2022/07/17 09:58:18;;;;;;;3.10;1.05;;;;;;;;;;5043075;28;20050;-67
2022/07/17 10:00:44;;;;;;;1.73;1.00;;;;;;;;;;5032415;28;20042;-68
2022/07/17 10:03:11;;;;;;;1.33;1.10;;;;;;;;;;5032734;28;20053;-69
2022/07/17 10:05:37;;;;;;;1.25;1.15;;;;;;;;;;5032731;28;20045;-68
2022/07/17 10:08:11;;;;;;;1.20;0.90;;;;;;;;;;5032605;28;20057;-68
2022/07/17 10:10:38;;;;;;;1.77;1.20;;;;;;;;;;5032395;28;20092;-68
2022/07/17 10:13:04;;;;;;;3.05;1.00;;;;;;;;;;5032116;28;20823;-68
2022/07/17 10:15:31;;;;;;;1.10;1.10;;;;;;;;;;5032473;28;20037;-68
2022/07/17 10:18:05;;;;;;;2.65;1.00;;;;;;;;;;5039573;28;20048;-68
2022/07/17 10:20:32;;;;;;;1.20;1.10;;;;;;;;;;5040911;28;20053;-68
2022/07/17 10:22:58;;;;;;;2.67;1.20;;;;;;;;;;5052328;28;20049;-68
2022/07/17 10:25:25;;;;;;;1.15;0.90;;;;;;;;;;5052550;28;20106;-68
2022/07/17 10:27:53;;;;;;;1.15;1.00;;;;;;;;;;5052138;28;20045;-69
2022/07/17 10:30:24;;;;;;;1.42;0.93;;;;;;;;;;5052592;28;20106;-68
2022/07/17 10:32:52;;;;;;;3.13;1.05;;;;;;;;;;5052342;28;20106;-68
2022/07/17 10:35:19;;;;;;;1.45;1.10;;;;;;;;;;5052376;28;20106;-67
2022/07/17 10:37:49;;;;;;;1.50;1.00;;;;;;;;;;5045813;28;20056;-68
2022/07/17 10:40:17;;;;;;;1.88;1.00;;;;;;;;;;5043268;28;20052;-68
2022/07/17 10:42:47;;;;;;;1.10;1.00;;;;;;;;;;5045822;28;20057;-68
2022/07/17 10:45:18;;;;;;;3.75;1.17;;;;;;;;;;5036478;28;20053;-68
2022/07/17 10:47:50;;;;;;;2.03;1.17;;;;;;;;;;5051732;28;20103;-67
2022/07/17 10:50:21;;;;;;;1.42;1.30;;;;;;;;;;5051892;28;20053;-69
2022/07/17 10:52:58;;;;;;;2.15;0.95;;;;;;;;;;5051788;28;20049;-67
2022/07/17 10:55:24;;;;;;;2.15;1.00;;;;;;;;;;5052022;28;20079;-69
2022/07/17 10:57:51;;;;;;;2.35;1.02;;;;;;;;;;5051887;28;20126;-69
2022/07/17 11:00:18;;;;;;;1.35;1.10;;;;;;;;;;5051648;28;20099;-68
2022/07/17 11:02:44;;;;;;;1.10;1.10;;;;;;;;;;5052024;28;20106;-65
2022/07/17 11:05:12;;;;;;;1.27;1.13;;;;;;;;;;5051654;28;20056;-64
2022/07/17 11:07:54;;;;;;;2.67;1.20;;;;;;;;;;5051882;28;20436;-65
2022/07/17 11:10:21;;;;;;;3.00;1.20;;;;;;;;;;5051558;28;20045;-64
2022/07/17 11:12:49;;;;;;;1.00;0.95;;;;;;;;;;5051551;28;20049;-65
2022/07/17 11:15:16;;;;;;;1.98;1.10;;;;;;;;;;5051524;28;20045;-65
2022/07/17 11:17:47;;;;;;;1.25;1.10;;;;;;;;;;5051786;28;20123;-64
2022/07/17 11:20:13;;;;;;;1.40;1.30;;;;;;;;;;5051551;28;20347;-64
2022/07/17 11:22:40;;;;;;;1.38;1.27;;;;;;;;;;5037991;28;20049;-65
2022/07/17 11:25:07;;;;;;;1.67;1.38;;;;;;;;;;5051527;28;20053;-66
2022/07/17 11:27:34;;;;;;;1.75;0.98;;;;;;;;;;5051316;28;20071;-66
2022/07/17 11:30:01;;;;;;;1.83;1.20;;;;;;;;;;5051676;28;20095;-65
2022/07/17 11:32:32;;;;;;;1.30;1.05;;;;;;;;;;5039814;28;20493;-66
2022/07/17 11:34:59;;;;;;;1.08;0.98;;;;;;;;;;5051560;28;20076;-66
2022/07/17 11:37:47;;;;;;;1.40;1.13;;;;;;;;;;5051199;28;20139;-64
2022/07/17 11:40:14;;;;;;;1.33;1.05;;;;;;;;;;5050860;28;20135;-65
2022/07/17 11:42:41;;;;;;;1.45;1.20;;;;;;;;;;5033847;28;20436;-66
2022/07/17 11:45:08;;;;;;;1.17;1.10;;;;;;;;;;5036241;28;20041;-64
2022/07/17 11:47:34;;;;;;;1.10;1.10;;;;;;;;;;5031854;28;20146;-66
2022/07/17 11:50:08;;;;;;;1.05;1.05;;;;;;;;;;5032616;28;20080;-69
2022/07/17 11:52:43;;;;;;;1.48;1.38;;;;;;;;;;5048764;28;20045;-68
2022/07/17 11:55:10;;;;;;;0.98;0.93;;;;;;;;;;5050889;28;20049;-68
2022/07/17 11:57:44;;;;;;;1.35;1.15;;;;;;;;;;5052059;28;20110;-66
2022/07/17 12:00:11;;;;;;;1.08;0.93;;;;;;;;;;5049937;28;20060;-65
2022/07/17 12:02:38;;;;;;;5.15;1.42;;;;;;;;;;5034205;28;20049;-65
2022/07/17 12:05:05;;;;;;;1.30;1.15;;;;;;;;;;5042145;28;20409;-66
2022/07/17 12:07:39;;;;;;;1.17;1.08;;;;;;;;;;5033919;28;20128;-67
2022/07/17 12:10:15;;;;;;;1.70;1.30;;;;;;;;;;5034226;28;20049;-68
2022/07/17 12:12:56;;;;;;;1.42;1.33;;;;;;;;;;5034394;28;20499;-66
2022/07/17 12:15:58;;;;;;;1.17;1.08;;;;;;;;;;5054553;28;20498;-64
2022/07/17 12:18:29;;;;;;;1.00;1.00;;;;;;;;;;5051737;28;20509;-66
2022/07/17 12:20:56;;;;;;;1.45;1.27;;;;;;;;;;5054104;28;20087;-67
2022/07/17 12:23:33;;;;;;;0.93;0.93;;;;;;;;;;5054367;28;20439;-66
2022/07/17 12:26:07;;;;;;;3.60;1.30;;;;;;;;;;5054173;28;20489;-64
2022/07/17 12:28:34;;;;;;;1.52;1.25;;;;;;;;;;5038168;28;20041;-64
2022/07/17 12:31:00;;;;;;;1.08;1.00;;;;;;;;;;5036828;28;20107;-68
2022/07/17 12:33:27;;;;;;;1.58;1.02;;;;;;;;;;5044585;28;20048;-68
2022/07/17 12:35:54;;;;;;;1.20;1.10;;;;;;;;;;5053863;28;20041;-67
2022/07/17 12:38:20;;;;;;;1.15;1.05;;;;;;;;;;5053867;28;20053;-67
2022/07/17 12:40:47;;;;;;;1.67;1.13;;;;;;;;;;5053591;28;20057;-68
2022/07/17 12:43:13;;;;;;;1.90;1.30;;;;;;;;;;5053993;28;20420;-65
2022/07/17 12:45:40;;;;;;;1.20;1.10;;;;;;;;;;5054243;28;20056;-65
2022/07/17 12:48:07;;;;;;;1.98;1.10;;;;;;;;;;5048937;28;20049;-65
2022/07/17 12:50:33;;;;;;;1.75;1.33;;;;;;;;;;5052263;28;20095;-65
2022/07/17 12:53:00;;;;;;;1.20;1.20;;;;;;;;;;5054248;28;20053;-66
2022/07/17 12:55:27;;;;;;;1.35;1.20;;;;;;;;;;5054062;28;20041;-66
2022/07/17 12:57:53;;;;;;;1.77;1.05;;;;;;;;;;5038161;28;20053;-66
2022/07/17 13:00:20;;;;;;;2.20;1.40;;;;;;;;;;5053607;28;20110;-67
2022/07/17 13:02:46;;;;;;;1.45;1.35;;;;;;;;;;5036089;28;20461;-68
2022/07/17 13:05:27;;;;;;;1.45;1.35;;;;;;;;;;5032932;28;20107;-69
2022/07/17 13:07:54;;;;;;;1.67;1.33;;;;;;;;;;5033357;28;20049;-67
2022/07/17 13:10:20;;;;;;;1.83;1.58;;;;;;;;;;5033348;28;20409;-64
2022/07/17 13:12:47;;;;;;;2.50;1.55;;;;;;;;;;5033231;28;20050;-64
2022/07/17 13:15:13;;;;;;;1.40;1.30;;;;;;;;;;5032969;28;20497;-64
2022/07/17 13:17:40;;;;;;;2.33;1.33;;;;;;;;;;5033184;28;20060;-64
2022/07/17 13:20:07;;;;;;;1.60;1.30;;;;;;;;;;5032706;28;20049;-67
2022/07/17 13:22:33;;;;;;;1.50;1.33;;;;;;;;;;5032591;28;20049;-66
2022/07/17 13:24:59;;;;;;;2.30;1.50;;;;;;;;;;5045953;28;20061;-68
2022/07/17 13:27:26;;;;;;;1.45;1.35;;;;;;;;;;5053133;28;20045;-68
2022/07/17 13:29:54;;;;;;;1.60;1.50;;;;;;;;;;5052899;28;20374;-67
2022/07/17 13:32:20;;;;;;;1.20;1.10;;;;;;;;;;5052957;28;20049;-68
2022/07/17 13:34:48;;;;;;;3.08;1.50;;;;;;;;;;5052804;28;20056;-67
2022/07/17 13:37:15;;;;;;;2.17;1.58;;;;;;;;;;5053172;28;20127;-66
2022/07/17 13:39:41;;;;;;;1.50;1.40;;;;;;;;;;5043962;28;20057;-68
2022/07/17 13:42:09;;;;;;;1.60;1.50;;;;;;;;;;5051819;28;20049;-67
2022/07/17 13:44:35;;;;;;;1.60;1.50;;;;;;;;;;5051764;28;20056;-67
2022/07/17 13:47:03;;;;;;;1.75;1.55;;;;;;;;;;5051574;28;20140;-68
2022/07/17 13:49:30;;;;;;;1.50;1.40;;;;;;;;;;5048360;28;20102;-67
2022/07/17 13:51:56;;;;;;;1.48;1.38;;;;;;;;;;5038800;28;20111;-65
2022/07/17 13:54:23;;;;;;;2.20;1.70;;;;;;;;;;5044929;28;20053;-67
2022/07/17 13:56:50;;;;;;;1.40;1.30;;;;;;;;;;5053280;28;20128;-67
2022/07/17 13:59:16;;;;;;;1.73;1.50;;;;;;;;;;5032374;28;20052;-65
2022/07/17 14:01:43;;;;;;;2.00;1.83;;;;;;;;;;5046711;28;20053;-65
2022/07/17 14:04:09;;;;;;;1.67;1.40;;;;;;;;;;5053033;28;20041;-69
2022/07/17 14:06:36;;;;;;;1.63;1.52;;;;;;;;;;5052844;28;20132;-66
2022/07/17 14:09:03;;;;;;;1.60;1.50;;;;;;;;;;5052881;28;20481;-66
2022/07/17 14:11:30;;;;;;;2.10;1.50;;;;;;;;;;5030428;28;20467;-67
2022/07/17 14:13:56;;;;;;;1.65;1.55;;;;;;;;;;5047682;28;20454;-66
2022/07/17 14:16:23;;;;;;;2.42;1.65;;;;;;;;;;5032505;28;20049;-66
2022/07/17 14:18:58;;;;;;;4.30;1.70;;;;;;;;;;5048650;28;20386;-64
2022/07/17 14:21:26;;;;;;;1.70;1.60;;;;;;;;;;5052180;28;20076;-65
2022/07/17 14:23:53;;;;;;;1.70;1.60;;;;;;;;;;5040428;28;20055;-67
2022/07/17 14:26:19;;;;;;;2.08;1.48;;;;;;;;;;5038039;28;20482;-66
2022/07/17 14:28:46;;;;;;;2.75;1.35;;;;;;;;;;5044766;28;20077;-66
2022/07/17 14:31:13;;;;;;;1.40;1.30;;;;;;;;;;5052174;28;20497;-67
2022/07/17 14:33:39;;;;;;;1.73;1.63;;;;;;;;;;5052252;28;20053;-66
2022/07/17 14:36:06;;;;;;;1.77;1.40;;;;;;;;;;5047654;28;20543;-68
2022/07/17 14:38:32;;;;;;;1.95;1.30;;;;;;;;;;5052159;28;20053;-66
2022/07/17 14:40:59;;;;;;;1.60;1.50;;;;;;;;;;5036094;28;20103;-65
2022/07/17 14:43:25;;;;;;;1.67;1.35;;;;;;;;;;5037370;28;20193;-66
2022/07/17 14:45:52;;;;;;;1.75;1.65;;;;;;;;;;5051617;28;20106;-65
2022/07/17 14:48:18;;;;;;;2.63;1.88;;;;;;;;;;5046082;28;20045;-65
2022/07/17 14:50:45;;;;;;;2.35;1.58;;;;;;;;;;5052261;28;20041;-65